createdAt,value
2018-02-13T00:03:21.000Z,1007.362
2018-02-13T00:13:21.000Z,1007.388
2018-02-13T00:23:21.000Z,1007.368
2018-02-13T00:33:21.000Z,1007.359
2018-02-13T00:43:21.000Z,1007.323
2018-02-13T00:53:21.000Z,1007.228
2018-02-13T01:03:21.000Z,1007.222
2018-02-13T01:13:21.000Z,1007.191
2018-02-13T01:23:21.000Z,1007.213
2018-02-13T01:33:25.000Z,1007.226
2018-02-13T01:43:21.000Z,1007.211
2018-02-13T01:53:21.000Z,1007.195
2018-02-13T02:03:21.000Z,1007.206
2018-02-13T02:13:21.000Z,1007.129
2018-02-13T02:23:21.000Z,1007.108
2018-02-13T02:33:21.000Z,1007.032
2018-02-13T02:43:21.000Z,1006.944
2018-02-13T02:53:21.000Z,1006.929
2018-02-13T03:03:21.000Z,1006.855
2018-02-13T03:13:21.000Z,1006.824
2018-02-13T03:23:21.000Z,1006.76
2018-02-13T03:33:21.000Z,1006.71
2018-02-13T03:43:21.000Z,1006.681
2018-02-13T03:53:21.000Z,1006.661
2018-02-13T04:03:21.000Z,1006.577
2018-02-13T04:13:21.000Z,1006.456
2018-02-13T04:23:21.000Z,1006.403
2018-02-13T04:33:21.000Z,1006.345
2018-02-13T04:43:21.000Z,1006.376
2018-02-13T04:53:21.000Z,1006.387
2018-02-13T05:03:21.000Z,1006.315
2018-02-13T05:13:21.000Z,1006.209
2018-02-13T05:23:21.000Z,1006.213
2018-02-13T05:33:21.000Z,1006.198
2018-02-13T05:43:21.000Z,1006.234
2018-02-13T05:53:21.000Z,1006.22
2018-02-13T06:03:21.000Z,1006.262
2018-02-13T06:13:21.000Z,1006.253
2018-02-13T06:23:21.000Z,1006.209
2018-02-13T06:33:22.000Z,1006.212
2018-02-13T06:43:21.000Z,1006.126
2018-02-13T06:53:22.000Z,1006.126
2018-02-13T07:03:22.000Z,1006.195
2018-02-13T07:13:22.000Z,1006.165
2018-02-13T07:23:22.000Z,1006.15
2018-02-13T07:33:22.000Z,1006.128
2018-02-13T07:43:22.000Z,1006.12
2018-02-13T07:53:22.000Z,1006.146
2018-02-13T08:03:22.000Z,1006.165
2018-02-13T08:13:22.000Z,1006.133
2018-02-13T08:23:22.000Z,1006.046
2018-02-13T08:33:22.000Z,1006.041
2018-02-13T08:43:22.000Z,1005.98
2018-02-13T08:53:22.000Z,1005.936
2018-02-13T09:03:22.000Z,1005.903
2018-02-13T09:13:22.000Z,1005.921
2018-02-13T09:23:22.000Z,1005.867
2018-02-13T09:33:22.000Z,1005.784
2018-02-13T09:43:22.000Z,1005.699
2018-02-13T09:53:22.000Z,1005.64
2018-02-13T10:03:22.000Z,1005.578
2018-02-13T10:13:22.000Z,1005.458
2018-02-13T10:23:22.000Z,1005.458
2018-02-13T10:33:22.000Z,1005.43
2018-02-13T10:43:22.000Z,1005.381
2018-02-13T10:53:22.000Z,1005.293
2018-02-13T11:03:22.000Z,1005.162
2018-02-13T11:13:22.000Z,1005.031
2018-02-13T11:23:22.000Z,1004.918
2018-02-13T11:33:22.000Z,1004.93
2018-02-13T11:43:22.000Z,1004.844
2018-02-13T11:53:22.000Z,1004.79
2018-02-13T12:03:22.000Z,1004.747
2018-02-13T12:13:22.000Z,1004.64
2018-02-13T12:23:22.000Z,1004.582
2018-02-13T12:33:22.000Z,1004.459
2018-02-13T12:43:22.000Z,1004.348
2018-02-13T12:53:22.000Z,1004.248
2018-02-13T13:03:22.000Z,1004.208
2018-02-13T13:13:22.000Z,1004.184
2018-02-13T13:23:22.000Z,1004.039
2018-02-13T13:33:22.000Z,1003.959
2018-02-13T13:43:22.000Z,1003.897
2018-02-13T13:53:22.000Z,1003.788
2018-02-13T14:03:22.000Z,1003.67
2018-02-13T14:13:22.000Z,1003.708
2018-02-13T14:23:22.000Z,1003.659
2018-02-13T14:33:22.000Z,1003.648
2018-02-13T14:43:22.000Z,1003.628
2018-02-13T14:53:23.000Z,1003.567
2018-02-13T15:03:23.000Z,1003.538
2018-02-13T15:03:33.000Z,1003.529
2018-02-13T15:13:33.000Z,1003.577
2018-02-13T15:23:33.000Z,1003.587
2018-02-13T15:33:33.000Z,1003.636
2018-02-13T15:43:34.000Z,1003.694
2018-02-13T15:53:33.000Z,1003.75
2018-02-13T16:03:33.000Z,1003.718
2018-02-13T16:13:33.000Z,1003.833
2018-02-13T16:23:33.000Z,1003.861
2018-02-13T16:33:33.000Z,1003.898
2018-02-13T16:43:33.000Z,1003.904
2018-02-13T16:53:33.000Z,1003.962
2018-02-13T17:03:33.000Z,1004.013
2018-02-13T17:13:33.000Z,1003.942
2018-02-13T17:23:33.000Z,1003.938
2018-02-13T17:33:33.000Z,1003.936
2018-02-13T17:43:33.000Z,1003.921
2018-02-13T17:53:33.000Z,1004.047
2018-02-13T18:03:33.000Z,1004.132
2018-02-13T18:13:33.000Z,1004.195
2018-02-13T18:23:33.000Z,1004.226
2018-02-13T18:33:33.000Z,1004.386
2018-02-13T18:53:33.000Z,1004.56
2018-02-13T19:03:33.000Z,1004.596
2018-02-13T19:13:33.000Z,1004.69
2018-02-13T19:23:33.000Z,1004.712
2018-02-13T19:33:33.000Z,1004.742
2018-02-13T19:43:33.000Z,1004.788
2018-02-13T19:53:33.000Z,1004.768
2018-02-13T20:03:33.000Z,1004.813
2018-02-13T20:13:33.000Z,1004.723
2018-02-13T20:23:33.000Z,1004.794
2018-02-13T20:33:33.000Z,1004.867
2018-02-13T20:43:33.000Z,1004.923
2018-02-13T20:53:37.000Z,1004.944
2018-02-13T21:03:33.000Z,1004.998
2018-02-13T21:13:33.000Z,1005.026
2018-02-13T21:23:33.000Z,1005.02
2018-02-13T21:33:33.000Z,1005.053
2018-02-13T21:43:33.000Z,1005.07
2018-02-13T21:53:33.000Z,1005.11
2018-02-13T22:03:33.000Z,1005.128
2018-02-13T22:13:33.000Z,1005.188
2018-02-13T22:23:33.000Z,1005.227
2018-02-13T22:33:34.000Z,1005.223
2018-02-13T22:43:34.000Z,1005.303
2018-02-13T22:53:34.000Z,1005.37
2018-02-13T23:03:34.000Z,1005.455
2018-02-13T23:13:34.000Z,1005.61
2018-02-13T23:23:35.000Z,1005.654
2018-02-13T23:33:34.000Z,1005.684
2018-02-13T23:43:34.000Z,1005.802
2018-02-13T23:53:34.000Z,1005.84
